createdAt,value
2022-07-28T00:00:43.998Z,7.40
2022-07-28T00:03:10.669Z,7.23
2022-07-28T00:05:37.413Z,7.60
2022-07-28T00:08:04.402Z,7.57
2022-07-28T00:10:32.277Z,7.57
2022-07-28T00:12:59.958Z,7.23
2022-07-28T00:15:27.354Z,7.47
2022-07-28T00:17:53.962Z,6.97
2022-07-28T00:20:21.039Z,7.43
2022-07-28T00:22:47.683Z,7.53
2022-07-28T00:25:15.726Z,7.63
2022-07-28T00:27:42.329Z,7.37
2022-07-28T00:30:10.040Z,7.70
2022-07-28T00:32:37.752Z,7.60
2022-07-28T00:35:05.069Z,7.47
2022-07-28T00:37:34.798Z,8.10
2022-07-28T00:40:01.446Z,8.20
2022-07-28T00:42:28.087Z,8.00
2022-07-28T00:44:54.653Z,7.50
2022-07-28T00:47:21.225Z,7.77
2022-07-28T00:49:48.298Z,7.73
2022-07-28T00:52:17.071Z,7.30
2022-07-28T00:54:44.231Z,7.70
2022-07-28T00:57:10.868Z,8.07
2022-07-28T00:59:37.515Z,7.67
2022-07-28T01:02:04.641Z,8.23
2022-07-28T01:04:31.409Z,8.13
2022-07-28T01:07:08.775Z,8.10
2022-07-28T01:09:57.088Z,7.47
2022-07-28T01:12:32.615Z,7.90
2022-07-28T01:15:23.551Z,7.27
2022-07-28T01:18:05.406Z,8.00
2022-07-28T01:20:37.754Z,7.30
2022-07-28T01:23:05.908Z,7.40
2022-07-28T01:26:09.414Z,7.70
2022-07-28T01:29:00.975Z,7.70
2022-07-28T01:31:32.314Z,7.77
2022-07-28T01:34:00.698Z,7.90
2022-07-28T01:36:38.950Z,7.47
2022-07-28T01:39:05.682Z,8.00
2022-07-28T01:41:33.224Z,7.67
2022-07-28T01:44:03.522Z,7.87
2022-07-28T01:46:30.578Z,8.20
2022-07-28T01:48:58.212Z,7.80
2022-07-28T01:51:27.446Z,7.90
2022-07-28T01:53:56.950Z,7.50
2022-07-28T01:56:24.036Z,7.37
2022-07-28T01:58:51.775Z,7.60
2022-07-28T02:01:19.640Z,7.90
2022-07-28T02:03:47.244Z,7.40
2022-07-28T02:06:15.348Z,7.50
2022-07-28T02:08:42.636Z,8.00
2022-07-28T02:11:27.826Z,8.20
2022-07-28T02:13:55.030Z,7.30
2022-07-28T02:16:23.484Z,7.37
2022-07-28T02:18:52.160Z,7.73
2022-07-28T02:21:20.336Z,7.80
2022-07-28T02:23:48.458Z,8.53
2022-07-28T02:26:18.007Z,8.20
2022-07-28T02:28:47.062Z,7.67
2022-07-28T02:31:20.050Z,7.10
2022-07-28T02:33:58.582Z,7.67
2022-07-28T02:36:31.315Z,8.20
2022-07-28T02:39:03.451Z,7.60
2022-07-28T02:41:32.358Z,7.70
2022-07-28T02:44:01.262Z,7.60
2022-07-28T02:46:35.240Z,8.27
2022-07-28T02:49:06.496Z,7.97
2022-07-28T02:51:33.846Z,7.73
2022-07-28T02:54:01.366Z,8.40
2022-07-28T02:56:29.591Z,7.57
2022-07-28T02:58:56.417Z,7.97
2022-07-28T03:01:23.839Z,7.50
2022-07-28T03:03:50.887Z,8.13
2022-07-28T03:06:26.461Z,8.00
2022-07-28T03:08:56.664Z,7.60
2022-07-28T03:11:23.318Z,7.80
2022-07-28T03:13:49.932Z,8.33
2022-07-28T03:16:16.575Z,8.13
2022-07-28T03:18:43.266Z,7.80
2022-07-28T03:21:09.822Z,7.93
2022-07-28T03:23:44.088Z,8.33
2022-07-28T03:26:41.255Z,8.27
2022-07-28T03:29:09.226Z,8.00
2022-07-28T03:31:36.066Z,7.87
2022-07-28T03:34:04.056Z,7.80
2022-07-28T03:36:36.608Z,7.43
2022-07-28T03:39:04.887Z,7.23
2022-07-28T03:41:32.466Z,7.60
2022-07-28T03:44:02.620Z,7.33
2022-07-28T03:46:29.412Z,8.13
2022-07-28T03:48:56.168Z,7.17
2022-07-28T03:51:25.507Z,7.60
2022-07-28T03:53:52.076Z,7.53
2022-07-28T03:56:19.452Z,7.03
2022-07-28T03:58:46.090Z,7.57
2022-07-28T04:01:12.718Z,7.57
2022-07-28T04:03:43.750Z,7.10
2022-07-28T04:06:15.069Z,6.83
2022-07-28T04:08:42.271Z,6.93
2022-07-28T04:11:08.928Z,7.13
2022-07-28T04:13:37.025Z,7.20
2022-07-28T04:16:05.260Z,7.10
2022-07-28T04:18:31.841Z,7.40
2022-07-28T04:20:58.573Z,7.00
2022-07-28T04:23:25.529Z,6.90
2022-07-28T04:25:52.230Z,7.00
2022-07-28T04:28:18.852Z,7.07
2022-07-28T04:30:45.969Z,6.97
2022-07-28T04:33:12.930Z,6.47
2022-07-28T04:35:39.652Z,6.37
2022-07-28T04:38:06.292Z,6.40
2022-07-28T04:40:34.452Z,5.77
2022-07-28T04:43:01.426Z,6.30
2022-07-28T04:45:28.093Z,5.67
2022-07-28T04:47:54.693Z,5.70
2022-07-28T04:50:21.608Z,5.77
2022-07-28T04:52:57.313Z,5.60
2022-07-28T04:55:24.047Z,5.27
2022-07-28T04:57:50.998Z,5.70
2022-07-28T05:00:17.820Z,5.03
2022-07-28T05:02:45.508Z,5.20
2022-07-28T05:05:12.685Z,4.90
2022-07-28T05:07:39.682Z,5.07
2022-07-28T05:10:07.605Z,4.97
2022-07-28T05:12:34.229Z,4.50
2022-07-28T05:15:00.922Z,4.67
2022-07-28T05:17:27.571Z,4.87
2022-07-28T05:19:54.194Z,4.60
2022-07-28T05:22:20.845Z,4.43
2022-07-28T05:24:47.461Z,3.90
2022-07-28T05:27:14.035Z,4.50
2022-07-28T05:29:47.314Z,4.50
2022-07-28T05:32:16.440Z,4.30
2022-07-28T05:34:44.616Z,4.07
2022-07-28T05:37:11.307Z,4.20
2022-07-28T05:39:37.927Z,4.07
2022-07-28T05:42:04.606Z,4.27
2022-07-28T05:44:37.243Z,4.30
2022-07-28T05:47:04.884Z,4.10
2022-07-28T05:49:31.554Z,3.70
2022-07-28T05:51:58.150Z,4.07
2022-07-28T05:54:25.063Z,3.67
2022-07-28T05:56:52.640Z,3.63
2022-07-28T05:59:19.228Z,3.77
2022-07-28T06:01:46.126Z,3.80
2022-07-28T06:04:29.012Z,3.70
2022-07-28T06:06:56.180Z,3.83
2022-07-28T06:09:22.867Z,3.63
2022-07-28T06:11:50.654Z,3.30
2022-07-28T06:14:17.823Z,4.10
2022-07-28T06:16:45.053Z,3.70
2022-07-28T06:19:11.703Z,3.67
2022-07-28T06:21:38.401Z,3.60
2022-07-28T06:24:05.544Z,3.70
2022-07-28T06:26:32.123Z,3.50
2022-07-28T06:28:58.746Z,3.57
2022-07-28T06:31:25.490Z,3.43
2022-07-28T06:33:52.091Z,3.80
2022-07-28T06:36:18.727Z,4.00
2022-07-28T06:38:45.312Z,3.70
2022-07-28T06:41:12.098Z,3.70
2022-07-28T06:43:39.373Z,3.63
2022-07-28T06:46:06.661Z,3.75
2022-07-28T06:48:34.058Z,3.47
2022-07-28T06:51:01.045Z,3.63
2022-07-28T06:53:27.939Z,3.40
2022-07-28T06:55:59.079Z,3.30
2022-07-28T06:58:25.673Z,3.73
2022-07-28T07:00:52.325Z,3.90
2022-07-28T07:03:18.980Z,3.57
2022-07-28T07:05:45.555Z,3.87
2022-07-28T07:08:15.675Z,3.80
2022-07-28T07:10:42.255Z,3.80
2022-07-28T07:13:08.925Z,3.83
2022-07-28T07:15:40.455Z,4.07
2022-07-28T07:18:07.036Z,3.67
2022-07-28T07:20:33.702Z,3.90
2022-07-28T07:23:00.359Z,3.90
2022-07-28T07:25:27.122Z,3.88
2022-07-28T07:27:53.746Z,3.90
2022-07-28T07:30:20.430Z,3.95
2022-07-28T07:32:47.047Z,3.90
2022-07-28T07:35:13.767Z,3.90
2022-07-28T07:37:40.666Z,4.35
2022-07-28T07:40:08.435Z,3.95
2022-07-28T07:42:35.160Z,4.20
2022-07-28T07:45:05.479Z,4.28
2022-07-28T07:47:32.100Z,4.18
2022-07-28T07:49:59.495Z,3.90
2022-07-28T07:52:28.499Z,4.65
2022-07-28T07:54:55.101Z,4.18
2022-07-28T07:57:21.755Z,4.20
2022-07-28T07:59:48.442Z,4.63
2022-07-28T08:02:15.089Z,4.50
2022-07-28T08:04:41.742Z,4.22
2022-07-28T08:07:09.508Z,4.65
2022-07-28T08:09:37.417Z,4.72
2022-07-28T08:12:04.346Z,4.05
2022-07-28T08:14:30.981Z,4.50
2022-07-28T08:16:59.251Z,4.10
2022-07-28T08:19:26.334Z,4.50
2022-07-28T08:21:53.283Z,4.93
2022-07-28T08:24:32.696Z,4.70
2022-07-28T08:27:01.825Z,4.80
2022-07-28T08:29:28.559Z,4.95
2022-07-28T08:31:55.190Z,4.35
2022-07-28T08:34:31.860Z,5.05
2022-07-28T08:37:01.738Z,4.45
2022-07-28T08:39:28.401Z,4.90
2022-07-28T08:42:00.171Z,5.30
2022-07-28T08:44:39.922Z,4.60
2022-07-28T08:47:10.320Z,5.30
2022-07-28T08:49:41.117Z,5.60
2022-07-28T08:52:10.461Z,5.10
2022-07-28T08:54:42.258Z,5.00
2022-07-28T08:57:10.699Z,5.47
2022-07-28T08:59:38.518Z,4.82
2022-07-28T09:02:05.433Z,4.63
2022-07-28T09:04:34.258Z,5.10
2022-07-28T09:07:00.836Z,5.25
2022-07-28T09:09:27.680Z,5.55
2022-07-28T09:11:54.310Z,5.30
2022-07-28T09:14:20.976Z,5.88
2022-07-28T09:16:47.578Z,5.40
2022-07-28T09:19:14.214Z,5.68
2022-07-28T09:21:42.030Z,6.05
2022-07-28T09:24:08.760Z,6.00
2022-07-28T09:26:35.371Z,5.32
2022-07-28T09:29:04.144Z,7.50
2022-07-28T09:31:30.860Z,6.25
2022-07-28T09:34:02.676Z,7.07
2022-07-28T09:36:30.916Z,6.65
2022-07-28T09:38:57.587Z,7.78
2022-07-28T09:41:24.951Z,7.05
2022-07-28T09:43:55.312Z,7.18
2022-07-28T09:46:24.803Z,7.38
2022-07-28T09:48:59.565Z,6.82
2022-07-28T09:51:28.671Z,6.90
2022-07-28T09:54:06.832Z,6.55
2022-07-28T09:56:33.623Z,6.50
2022-07-28T09:59:00.611Z,5.13
2022-07-28T10:01:33.337Z,5.85
2022-07-28T10:04:04.112Z,6.35
2022-07-28T10:06:32.691Z,5.28
2022-07-28T10:09:06.069Z,5.90
2022-07-28T10:11:35.386Z,5.78
2022-07-28T10:14:07.142Z,5.43
2022-07-28T10:16:44.262Z,5.72
2022-07-28T10:19:10.937Z,5.85
2022-07-28T10:21:44.377Z,4.72
2022-07-28T10:24:15.353Z,5.32
2022-07-28T10:26:45.806Z,4.30
2022-07-28T10:29:17.174Z,4.30
2022-07-28T10:31:58.263Z,5.55
2022-07-28T10:34:35.552Z,4.70
2022-07-28T10:37:10.180Z,4.47
2022-07-28T10:39:41.895Z,4.55
2022-07-28T10:42:10.684Z,4.20
2022-07-28T10:44:38.396Z,3.90
2022-07-28T10:47:09.463Z,3.70
2022-07-28T10:49:45.752Z,3.50
2022-07-28T10:52:45.739Z,3.80
2022-07-28T10:55:31.607Z,3.72
2022-07-28T10:58:51.945Z,3.80
2022-07-28T11:01:49.553Z,3.90
2022-07-28T11:04:48.976Z,4.38
2022-07-28T11:07:17.501Z,4.32
2022-07-28T11:09:47.318Z,4.13
2022-07-28T11:12:15.526Z,3.72
2022-07-28T11:14:43.499Z,3.90
2022-07-28T11:17:11.235Z,4.60
2022-07-28T11:19:46.951Z,3.78
2022-07-28T11:22:30.413Z,4.30
2022-07-28T11:25:18.771Z,3.60
2022-07-28T11:27:54.443Z,3.30
2022-07-28T11:30:33.619Z,3.60
2022-07-28T11:33:00.932Z,3.75
2022-07-28T11:35:28.691Z,3.70
2022-07-28T11:38:01.304Z,3.60
2022-07-28T11:40:31.470Z,4.05
2022-07-28T11:43:37.330Z,3.80
2022-07-28T11:46:04.786Z,4.10
2022-07-28T11:48:37.445Z,3.92
2022-07-28T11:51:04.105Z,3.78
2022-07-28T11:53:47.337Z,4.03
2022-07-28T11:56:24.456Z,3.80
2022-07-28T11:59:02.735Z,3.67
2022-07-28T12:01:31.886Z,3.78
2022-07-28T12:03:59.979Z,4.00
2022-07-28T12:06:35.798Z,3.33
2022-07-28T12:09:04.844Z,3.80
2022-07-28T12:11:32.991Z,3.50
2022-07-28T12:14:14.737Z,3.53
2022-07-28T12:16:43.701Z,3.55
2022-07-28T12:19:11.195Z,3.40
2022-07-28T12:21:47.675Z,3.50
2022-07-28T12:24:28.067Z,4.03
2022-07-28T12:26:55.229Z,3.78
2022-07-28T12:29:23.638Z,3.60
2022-07-28T12:32:10.815Z,3.28
2022-07-28T12:34:40.607Z,3.30
2022-07-28T12:37:12.312Z,3.20
2022-07-28T12:39:42.289Z,3.40
2022-07-28T12:42:11.420Z,3.70
2022-07-28T12:44:42.737Z,3.75
2022-07-28T12:47:12.249Z,3.20
2022-07-28T12:49:42.451Z,3.15
2022-07-28T12:52:21.934Z,3.38
2022-07-28T12:54:53.479Z,3.30
2022-07-28T12:57:53.494Z,3.38
2022-07-28T13:00:22.985Z,3.40
2022-07-28T13:02:51.598Z,2.92
2022-07-28T13:05:30.651Z,3.13
2022-07-28T13:08:05.281Z,3.45
2022-07-28T13:10:32.636Z,3.58
2022-07-28T13:13:04.367Z,3.50
2022-07-28T13:15:31.755Z,3.30
2022-07-28T13:17:58.953Z,2.92
2022-07-28T13:20:26.375Z,3.30
2022-07-28T13:22:54.105Z,3.10
2022-07-28T13:25:21.193Z,3.30
2022-07-28T13:27:54.213Z,3.20
2022-07-28T13:30:23.396Z,3.38
2022-07-28T13:32:50.275Z,3.35
2022-07-28T13:35:18.695Z,3.20
2022-07-28T13:37:45.885Z,3.78
2022-07-28T13:40:12.885Z,3.20
2022-07-28T13:42:39.460Z,3.00
2022-07-28T13:45:06.582Z,3.38
2022-07-28T13:47:38.832Z,3.60
2022-07-28T13:50:07.321Z,3.08
2022-07-28T13:52:37.412Z,3.00
2022-07-28T13:55:06.032Z,2.88
2022-07-28T13:57:35.735Z,2.80
2022-07-28T14:00:07.681Z,2.83
2022-07-28T14:02:35.269Z,2.75
2022-07-28T14:05:01.931Z,2.80
2022-07-28T14:07:28.846Z,3.00
2022-07-28T14:09:55.464Z,2.60
2022-07-28T14:12:22.219Z,2.65
2022-07-28T14:14:49.180Z,2.70
2022-07-28T14:17:42.654Z,2.72
2022-07-28T14:20:09.852Z,2.30
2022-07-28T14:22:36.507Z,2.60
2022-07-28T14:25:03.349Z,2.65
2022-07-28T14:27:30.075Z,2.80
2022-07-28T14:29:56.811Z,2.78
2022-07-28T14:32:23.463Z,2.70
2022-07-28T14:34:50.538Z,2.90
2022-07-28T14:37:17.619Z,2.72
2022-07-28T14:39:44.440Z,2.50
2022-07-28T14:42:11.453Z,2.35
2022-07-28T14:44:38.185Z,2.67
2022-07-28T14:47:06.562Z,2.60
2022-07-28T14:49:34.753Z,2.72
2022-07-28T14:52:01.535Z,2.33
2022-07-28T14:54:28.248Z,2.60
2022-07-28T14:56:54.944Z,2.58
2022-07-28T14:59:21.541Z,2.42
2022-07-28T15:01:48.865Z,2.60
2022-07-28T15:04:16.505Z,2.55
2022-07-28T15:06:44.059Z,2.80
2022-07-28T15:09:10.737Z,2.42
2022-07-28T15:11:37.693Z,2.60
2022-07-28T15:14:04.536Z,2.42
2022-07-28T15:16:31.359Z,2.30
2022-07-28T15:18:58.387Z,2.42
2022-07-28T15:21:25.042Z,2.78
2022-07-28T15:23:51.725Z,2.67
2022-07-28T15:26:18.314Z,2.60
2022-07-28T15:28:48.290Z,2.70
2022-07-28T15:31:15.881Z,2.55
2022-07-28T15:33:48.348Z,2.83
2022-07-28T15:36:25.277Z,2.70
2022-07-28T15:38:52.484Z,2.60
2022-07-28T15:41:19.220Z,2.70
2022-07-28T15:43:45.874Z,2.53
2022-07-28T15:46:13.402Z,2.55
2022-07-28T15:48:42.307Z,2.45
2022-07-28T15:51:09.705Z,2.58
2022-07-28T15:53:36.830Z,2.78
2022-07-28T15:56:04.601Z,2.63
2022-07-28T15:58:31.414Z,2.78
2022-07-28T16:00:59.321Z,2.60
2022-07-28T16:03:28.443Z,2.78
2022-07-28T16:05:55.130Z,2.80
2022-07-28T16:08:22.393Z,2.90
2022-07-28T16:10:51.545Z,2.70
2022-07-28T16:13:28.444Z,3.00
2022-07-28T16:16:08.483Z,2.90
2022-07-28T16:18:36.522Z,2.80
2022-07-28T16:21:03.386Z,3.00
2022-07-28T16:23:30.071Z,3.22
2022-07-28T16:25:56.670Z,3.03
2022-07-28T16:28:23.294Z,3.00
2022-07-28T16:30:50.060Z,3.10
2022-07-28T16:33:17.251Z,3.33
2022-07-28T16:35:44.749Z,2.80
2022-07-28T16:38:12.759Z,2.92
2022-07-28T16:40:39.641Z,2.60
2022-07-28T16:43:07.000Z,3.00
2022-07-28T16:45:34.876Z,2.90
2022-07-28T16:48:08.210Z,2.97
2022-07-28T16:50:35.650Z,2.90
2022-07-28T16:53:05.108Z,3.00
2022-07-28T16:55:33.206Z,2.88
2022-07-28T16:58:00.714Z,3.00
2022-07-28T17:00:27.712Z,3.35
2022-07-28T17:02:56.155Z,2.97
2022-07-28T17:05:23.863Z,2.60
2022-07-28T17:07:52.280Z,3.00
2022-07-28T17:10:21.188Z,3.28
2022-07-28T17:12:54.689Z,3.15
2022-07-28T17:15:22.736Z,2.95
2022-07-28T17:17:51.547Z,3.10
2022-07-28T17:20:19.362Z,3.28
2022-07-28T17:22:46.334Z,2.97
2022-07-28T17:25:52.369Z,2.80
2022-07-28T17:28:04.814Z,3.17
2022-07-28T17:30:33.296Z,3.33
2022-07-28T17:33:07.672Z,3.05
2022-07-28T17:35:36.156Z,2.90
2022-07-28T17:38:07.425Z,3.17
2022-07-28T17:40:34.633Z,3.00
2022-07-28T17:43:03.075Z,2.90
2022-07-28T17:45:31.408Z,3.22
2022-07-28T17:47:58.424Z,3.25
2022-07-28T17:50:26.780Z,3.20
2022-07-28T17:52:53.949Z,2.90
2022-07-28T17:55:58.168Z,3.20
2022-07-28T17:58:29.173Z,3.17
2022-07-28T18:01:10.042Z,3.30
2022-07-28T18:03:59.044Z,3.08
2022-07-28T18:06:35.489Z,3.50
2022-07-28T18:09:06.964Z,3.30
2022-07-28T18:11:55.754Z,3.10
2022-07-28T18:14:29.504Z,3.20
2022-07-28T18:16:56.245Z,3.13
2022-07-28T18:19:22.892Z,3.05
2022-07-28T18:21:49.718Z,3.22
2022-07-28T18:24:16.895Z,3.45
2022-07-28T18:26:43.965Z,3.45
2022-07-28T18:29:10.534Z,3.20
2022-07-28T18:31:43.847Z,3.30
2022-07-28T18:34:12.683Z,3.35
2022-07-28T18:36:39.571Z,3.47
2022-07-28T18:39:06.212Z,3.00
2022-07-28T18:41:34.560Z,3.22
2022-07-28T18:44:13.975Z,3.22
2022-07-28T18:46:40.999Z,3.30
2022-07-28T18:49:08.025Z,3.80
2022-07-28T18:51:34.635Z,3.40
2022-07-28T18:54:01.235Z,3.65
2022-07-28T18:56:27.831Z,4.53
2022-07-28T18:58:56.037Z,4.10
2022-07-28T19:01:23.031Z,4.00
2022-07-28T19:03:49.719Z,3.72
2022-07-28T19:06:16.472Z,3.90
2022-07-28T19:08:43.296Z,4.07
2022-07-28T19:11:10.401Z,3.85
2022-07-28T19:13:37.102Z,4.00
2022-07-28T19:16:03.985Z,4.00
2022-07-28T19:18:30.765Z,3.90
2022-07-28T19:20:57.431Z,4.20
2022-07-28T19:23:24.437Z,4.00
2022-07-28T19:25:51.245Z,3.70
2022-07-28T19:28:18.065Z,3.80
2022-07-28T19:30:45.077Z,3.80
2022-07-28T19:33:15.860Z,4.00
2022-07-28T19:35:45.620Z,3.92
2022-07-28T19:38:12.476Z,4.10
2022-07-28T19:40:41.359Z,4.28
2022-07-28T19:43:08.031Z,3.70
2022-07-28T19:45:37.069Z,3.90
2022-07-28T19:48:04.052Z,3.70
2022-07-28T19:50:30.919Z,3.90
2022-07-28T19:52:57.783Z,4.10
2022-07-28T19:55:26.890Z,4.25
2022-07-28T19:57:55.971Z,3.92
2022-07-28T20:00:22.620Z,4.00
2022-07-28T20:02:49.559Z,4.10
2022-07-28T20:05:16.368Z,3.75
2022-07-28T20:07:43.198Z,3.88
2022-07-28T20:10:09.858Z,4.30
2022-07-28T20:12:37.202Z,4.15
2022-07-28T20:15:07.241Z,4.10
2022-07-28T20:17:39.515Z,3.90
2022-07-28T20:20:08.177Z,3.90
2022-07-28T20:22:34.931Z,4.13
2022-07-28T20:25:01.616Z,3.67
2022-07-28T20:27:28.187Z,3.95
2022-07-28T20:29:54.848Z,3.83
2022-07-28T20:32:21.483Z,4.13
2022-07-28T20:34:48.241Z,4.00
2022-07-28T20:37:27.944Z,3.70
2022-07-28T20:40:02.058Z,3.63
2022-07-28T20:42:28.691Z,3.67
2022-07-28T20:44:55.333Z,4.00
2022-07-28T20:47:23.301Z,3.90
2022-07-28T20:49:49.893Z,3.90
2022-07-28T20:52:16.549Z,4.10
2022-07-28T20:54:43.201Z,3.95
2022-07-28T20:57:10.310Z,3.80
2022-07-28T20:59:36.921Z,4.00
2022-07-28T21:02:03.544Z,3.80
2022-07-28T21:04:30.246Z,4.10
2022-07-28T21:07:02.325Z,3.80
2022-07-28T21:09:30.980Z,4.20
2022-07-28T21:11:57.608Z,3.95
2022-07-28T21:14:24.218Z,4.35
2022-07-28T21:16:51.269Z,4.30
2022-07-28T21:19:17.974Z,4.40
2022-07-28T21:21:44.634Z,4.40
2022-07-28T21:24:11.217Z,4.20
2022-07-28T21:26:37.799Z,4.50
2022-07-28T21:32:03.865Z,4.25
2022-07-28T21:34:34.461Z,4.20
2022-07-28T21:37:05.141Z,4.35
2022-07-28T21:39:31.930Z,4.03
2022-07-28T21:41:58.726Z,4.18
2022-07-28T21:44:25.352Z,4.57
2022-07-28T21:46:52.067Z,4.25
2022-07-28T21:49:18.759Z,4.78
2022-07-28T21:51:46.066Z,4.30
2022-07-28T21:54:12.908Z,4.65
2022-07-28T21:56:39.841Z,4.50
2022-07-28T21:59:06.462Z,4.67
2022-07-28T22:01:33.274Z,4.70
2022-07-28T22:03:59.949Z,4.60
2022-07-28T22:06:27.012Z,4.63
2022-07-28T22:08:54.249Z,4.90
2022-07-28T22:11:21.985Z,4.50
2022-07-28T22:13:49.028Z,4.80
2022-07-28T22:16:15.934Z,4.50
2022-07-28T22:18:42.884Z,4.47
2022-07-28T22:21:10.489Z,4.57
2022-07-28T22:23:41.794Z,4.70
2022-07-28T22:26:10.160Z,4.93
2022-07-28T22:28:39.957Z,4.80
2022-07-28T22:31:08.926Z,4.90
2022-07-28T22:33:40.090Z,4.70
2022-07-28T22:36:08.980Z,5.10
2022-07-28T22:38:36.497Z,4.70
2022-07-28T22:41:03.650Z,5.30
2022-07-28T22:43:33.835Z,4.77
2022-07-28T22:46:01.336Z,5.60
2022-07-28T22:48:29.445Z,4.73
2022-07-28T22:50:56.375Z,5.40
2022-07-28T22:53:23.571Z,5.10
2022-07-28T22:55:50.335Z,5.77
2022-07-28T22:58:17.294Z,5.20
2022-07-28T23:00:44.239Z,5.07
2022-07-28T23:03:13.390Z,5.17
2022-07-28T23:05:42.875Z,5.83
2022-07-28T23:08:11.422Z,5.10
2022-07-28T23:10:40.143Z,5.60
2022-07-28T23:13:07.324Z,5.30
2022-07-28T23:15:40.902Z,5.20
2022-07-28T23:18:13.669Z,5.43
2022-07-28T23:20:40.710Z,5.10
2022-07-28T23:23:07.298Z,5.10
2022-07-28T23:25:36.320Z,5.83
2022-07-28T23:28:03.440Z,5.47
2022-07-28T23:30:30.058Z,5.80
2022-07-28T23:32:56.666Z,5.10
2022-07-28T23:35:23.487Z,5.23
2022-07-28T23:37:50.071Z,5.40
2022-07-28T23:40:16.690Z,5.47
2022-07-28T23:42:43.357Z,5.70
2022-07-28T23:45:10.488Z,5.23
2022-07-28T23:47:37.243Z,5.67
2022-07-28T23:50:04.558Z,5.60
2022-07-28T23:52:31.243Z,5.30
2022-07-28T23:54:57.944Z,5.60
2022-07-28T23:57:24.498Z,5.70
2022-07-28T23:59:51.147Z,5.67
